sensor_id;sensor_type;location;lat;lon;timestamp;pressure;altitude;pressure_sealevel;temperature;humidity
50368;BME280;36281;34.132;-118.018;2023-04-20T00:00:08;100152.00;;;22.59;30.28
50368;BME280;36281;34.132;-118.018;2023-04-20T00:02:38;100140.44;;;22.54;29.90
50368;BME280;36281;34.132;-118.018;2023-04-20T00:05:09;100152.09;;;22.49;29.13
50368;BME280;36281;34.132;-118.018;2023-04-20T00:07:39;100146.75;;;22.44;29.37
50368;BME280;36281;34.132;-118.018;2023-04-20T00:10:09;100139.25;;;22.36;29.56
50368;BME280;36281;34.132;-118.018;2023-04-20T00:12:38;100143.06;;;22.30;29.90
50368;BME280;36281;34.132;-118.018;2023-04-20T00:15:11;100137.72;;;22.25;29.27
50368;BME280;36281;34.132;-118.018;2023-04-20T00:17:40;100141.56;;;22.18;29.84
50368;BME280;36281;34.132;-118.018;2023-04-20T00:20:10;100131.06;;;22.12;29.27
50368;BME280;36281;34.132;-118.018;2023-04-20T00:22:39;100129.47;;;22.06;29.14
50368;BME280;36281;34.132;-118.018;2023-04-20T00:25:09;100132.47;;;22.04;29.67
50368;BME280;36281;34.132;-118.018;2023-04-20T00:27:38;100112.56;;;21.95;30.67
50368;BME280;36281;34.132;-118.018;2023-04-20T00:30:11;100132.50;;;21.99;29.92
50368;BME280;36281;34.132;-118.018;2023-04-20T00:32:40;100132.53;;;21.94;29.97
50368;BME280;36281;34.132;-118.018;2023-04-20T00:35:10;100131.22;;;21.86;29.79
50368;BME280;36281;34.132;-118.018;2023-04-20T00:37:40;100128.31;;;21.78;29.71
50368;BME280;36281;34.132;-118.018;2023-04-20T00:40:09;100132.41;;;21.70;29.57
50368;BME280;36281;34.132;-118.018;2023-04-20T00:42:38;100131.91;;;21.63;30.23
50368;BME280;36281;34.132;-118.018;2023-04-20T00:45:12;100134.63;;;21.58;30.67
50368;BME280;36281;34.132;-118.018;2023-04-20T00:47:41;100129.56;;;21.51;30.93
50368;BME280;36281;34.132;-118.018;2023-04-20T00:50:10;100130.09;;;21.48;30.79
50368;BME280;36281;34.132;-118.018;2023-04-20T00:52:40;100132.56;;;21.45;30.75
50368;BME280;36281;34.132;-118.018;2023-04-20T00:55:10;100134.47;;;21.39;30.71
50368;BME280;36281;34.132;-118.018;2023-04-20T00:57:40;100134.22;;;21.30;30.80
50368;BME280;36281;34.132;-118.018;2023-04-20T01:00:12;100130.97;;;21.23;30.89
50368;BME280;36281;34.132;-118.018;2023-04-20T01:02:41;100133.69;;;21.18;30.74
50368;BME280;36281;34.132;-118.018;2023-04-20T01:05:10;100134.53;;;21.08;30.55
50368;BME280;36281;34.132;-118.018;2023-04-20T01:07:40;100142.66;;;20.98;31.52
50368;BME280;36281;34.132;-118.018;2023-04-20T01:10:09;100147.78;;;20.95;31.47
50368;BME280;36281;34.132;-118.018;2023-04-20T01:12:38;100152.09;;;20.90;31.42
50368;BME280;36281;34.132;-118.018;2023-04-20T01:15:08;100146.19;;;20.83;31.97
50368;BME280;36281;34.132;-118.018;2023-04-20T01:17:39;100149.72;;;20.79;31.72
50368;BME280;36281;34.132;-118.018;2023-04-20T01:20:09;100154.56;;;20.72;31.52
50368;BME280;36281;34.132;-118.018;2023-04-20T01:22:45;100148.38;;;20.61;31.62
50368;BME280;36281;34.132;-118.018;2023-04-20T01:25:14;100154.59;;;20.51;31.22
50368;BME280;36281;34.132;-118.018;2023-04-20T01:27:44;100156.72;;;20.44;31.34
50368;BME280;36281;34.132;-118.018;2023-04-20T01:30:13;100149.97;;;20.31;31.49
50368;BME280;36281;34.132;-118.018;2023-04-20T01:32:42;100160.75;;;20.26;31.56
50368;BME280;36281;34.132;-118.018;2023-04-20T01:35:12;100161.03;;;20.20;31.60
50368;BME280;36281;34.132;-118.018;2023-04-20T01:37:41;100147.00;;;20.07;32.05
50368;BME280;36281;34.132;-118.018;2023-04-20T01:40:13;100159.13;;;20.05;31.66
50368;BME280;36281;34.132;-118.018;2023-04-20T01:42:54;100155.06;;;19.97;31.31
50368;BME280;36281;34.132;-118.018;2023-04-20T01:45:23;100148.59;;;19.83;31.60
50368;BME280;36281;34.132;-118.018;2023-04-20T01:47:52;100153.97;;;19.83;31.67
50368;BME280;36281;34.132;-118.018;2023-04-20T01:50:21;100161.75;;;19.79;31.57
50368;BME280;36281;34.132;-118.018;2023-04-20T01:52:50;100162.28;;;19.71;31.99
50368;BME280;36281;34.132;-118.018;2023-04-20T01:55:22;100160.66;;;19.65;31.98
50368;BME280;36281;34.132;-118.018;2023-04-20T01:57:51;100161.91;;;19.57;32.04
50368;BME280;36281;34.132;-118.018;2023-04-20T02:00:20;100160.00;;;19.48;31.85
50368;BME280;36281;34.132;-118.018;2023-04-20T02:02:49;100155.97;;;19.40;32.33
50368;BME280;36281;34.132;-118.018;2023-04-20T02:05:18;100155.66;;;19.31;32.40
50368;BME280;36281;34.132;-118.018;2023-04-20T02:07:47;100159.63;;;19.24;33.98
50368;BME280;36281;34.132;-118.018;2023-04-20T02:10:16;100130.78;;;18.99;32.75
50368;BME280;36281;34.132;-118.018;2023-04-20T02:12:47;100159.03;;;19.06;32.98
50368;BME280;36281;34.132;-118.018;2023-04-20T02:15:16;100163.81;;;19.04;33.89
50368;BME280;36281;34.132;-118.018;2023-04-20T02:17:45;100161.66;;;18.96;34.17
50368;BME280;36281;34.132;-118.018;2023-04-20T02:20:14;100163.47;;;18.85;34.52
50368;BME280;36281;34.132;-118.018;2023-04-20T02:22:43;100165.28;;;18.75;33.80
50368;BME280;36281;34.132;-118.018;2023-04-20T02:25:13;100163.38;;;18.70;34.86
50368;BME280;36281;34.132;-118.018;2023-04-20T02:27:42;100169.72;;;18.64;35.50
50368;BME280;36281;34.132;-118.018;2023-04-20T02:30:13;100159.72;;;18.54;35.28
50368;BME280;36281;34.132;-118.018;2023-04-20T02:32:42;100167.44;;;18.46;35.63
50368;BME280;36281;34.132;-118.018;2023-04-20T02:35:11;100167.66;;;18.39;36.41
50368;BME280;36281;34.132;-118.018;2023-04-20T02:37:41;100173.50;;;18.31;36.58
50368;BME280;36281;34.132;-118.018;2023-04-20T02:40:11;100175.78;;;18.17;37.52
50368;BME280;36281;34.132;-118.018;2023-04-20T02:42:40;100179.16;;;18.07;38.68
50368;BME280;36281;34.132;-118.018;2023-04-20T02:45:12;100177.75;;;18.00;39.04
50368;BME280;36281;34.132;-118.018;2023-04-20T02:47:41;100175.22;;;17.88;39.14
50368;BME280;36281;34.132;-118.018;2023-04-20T02:50:10;100179.13;;;17.75;39.25
50368;BME280;36281;34.132;-118.018;2023-04-20T02:52:39;100178.66;;;17.62;39.48
50368;BME280;36281;34.132;-118.018;2023-04-20T02:55:09;100184.38;;;17.48;40.63
50368;BME280;36281;34.132;-118.018;2023-04-20T02:57:38;100174.69;;;17.42;41.20
50368;BME280;36281;34.132;-118.018;2023-04-20T03:00:07;100178.44;;;17.24;42.06
50368;BME280;36281;34.132;-118.018;2023-04-20T03:02:38;100187.16;;;17.15;41.56
50368;BME280;36281;34.132;-118.018;2023-04-20T03:05:08;100187.59;;;17.07;43.08
50368;BME280;36281;34.132;-118.018;2023-04-20T03:07:37;100188.31;;;17.02;43.03
50368;BME280;36281;34.132;-118.018;2023-04-20T03:10:07;100196.03;;;16.98;43.12
50368;BME280;36281;34.132;-118.018;2023-04-20T03:12:36;100200.44;;;16.88;43.10
50368;BME280;36281;34.132;-118.018;2023-04-20T03:15:06;100201.06;;;16.78;43.38
50368;BME280;36281;34.132;-118.018;2023-04-20T03:17:40;100211.78;;;16.78;44.10
50368;BME280;36281;34.132;-118.018;2023-04-20T03:20:10;100203.22;;;16.64;44.07
50368;BME280;36281;34.132;-118.018;2023-04-20T03:22:39;100214.81;;;16.53;44.40
50368;BME280;36281;34.132;-118.018;2023-04-20T03:25:08;100209.56;;;16.41;44.75
50368;BME280;36281;34.132;-118.018;2023-04-20T03:27:37;100208.00;;;16.28;45.24
50368;BME280;36281;34.132;-118.018;2023-04-20T03:30:08;100221.34;;;16.28;45.64
50368;BME280;36281;34.132;-118.018;2023-04-20T03:32:37;100230.09;;;16.24;46.41
50368;BME280;36281;34.132;-118.018;2023-04-20T03:35:08;100226.75;;;16.17;46.31
50368;BME280;36281;34.132;-118.018;2023-04-20T03:37:37;100224.72;;;16.07;46.68
50368;BME280;36281;34.132;-118.018;2023-04-20T03:40:08;100219.41;;;15.95;46.96
50368;BME280;36281;34.132;-118.018;2023-04-20T03:42:37;100233.81;;;15.94;47.68
50368;BME280;36281;34.132;-118.018;2023-04-20T03:45:07;100234.88;;;15.93;47.48
50368;BME280;36281;34.132;-118.018;2023-04-20T03:47:36;100233.97;;;15.88;46.38
50368;BME280;36281;34.132;-118.018;2023-04-20T03:50:08;100246.06;;;15.79;47.04
50368;BME280;36281;34.132;-118.018;2023-04-20T03:52:37;100240.50;;;15.68;47.22
50368;BME280;36281;34.132;-118.018;2023-04-20T03:55:07;100238.75;;;15.62;47.22
50368;BME280;36281;34.132;-118.018;2023-04-20T03:57:37;100232.41;;;15.51;46.98
50368;BME280;36281;34.132;-118.018;2023-04-20T04:00:07;100254.78;;;15.50;47.15
50368;BME280;36281;34.132;-118.018;2023-04-20T04:02:38;100260.94;;;15.51;46.51
50368;BME280;36281;34.132;-118.018;2023-04-20T04:05:09;100267.09;;;15.51;46.74
50368;BME280;36281;34.132;-118.018;2023-04-20T04:07:38;100272.34;;;15.46;47.54
50368;BME280;36281;34.132;-118.018;2023-04-20T04:10:08;100279.06;;;15.37;47.14
50368;BME280;36281;34.132;-118.018;2023-04-20T04:12:38;100285.09;;;15.33;48.11
50368;BME280;36281;34.132;-118.018;2023-04-20T04:15:08;100301.44;;;15.24;48.16
50368;BME280;36281;34.132;-118.018;2023-04-20T04:17:37;100302.03;;;15.27;48.67
50368;BME280;36281;34.132;-118.018;2023-04-20T04:20:09;100299.94;;;15.17;48.37
50368;BME280;36281;34.132;-118.018;2023-04-20T04:22:40;100288.44;;;15.05;48.44
50368;BME280;36281;34.132;-118.018;2023-04-20T04:25:09;100308.41;;;15.02;48.73
50368;BME280;36281;34.132;-118.018;2023-04-20T04:27:39;100298.75;;;15.01;49.36
50368;BME280;36281;34.132;-118.018;2023-04-20T04:30:09;100307.22;;;14.98;49.95
50368;BME280;36281;34.132;-118.018;2023-04-20T04:32:38;100309.97;;;14.91;49.61
50368;BME280;36281;34.132;-118.018;2023-04-20T04:35:09;100317.03;;;14.86;50.36
50368;BME280;36281;34.132;-118.018;2023-04-20T04:37:39;100317.03;;;14.86;50.71
50368;BME280;36281;34.132;-118.018;2023-04-20T04:40:09;100306.94;;;14.76;51.70
50368;BME280;36281;34.132;-118.018;2023-04-20T04:42:38;100321.31;;;14.75;51.69
50368;BME280;36281;34.132;-118.018;2023-04-20T04:45:09;100321.31;;;14.75;51.87
50368;BME280;36281;34.132;-118.018;2023-04-20T04:47:38;100328.00;;;14.66;52.21
50368;BME280;36281;34.132;-118.018;2023-04-20T04:50:11;100328.69;;;14.61;52.66
50368;BME280;36281;34.132;-118.018;2023-04-20T04:52:40;100320.88;;;14.48;52.78
50368;BME280;36281;34.132;-118.018;2023-04-20T04:55:10;100334.69;;;14.57;53.31
50368;BME280;36281;34.132;-118.018;2023-04-20T04:57:42;100335.72;;;14.56;53.57
50368;BME280;36281;34.132;-118.018;2023-04-20T05:00:12;100336.53;;;14.56;53.55
50368;BME280;36281;34.132;-118.018;2023-04-20T05:02:41;100346.25;;;14.51;53.47
50368;BME280;36281;34.132;-118.018;2023-04-20T05:05:12;100350.25;;;14.41;54.98
50368;BME280;36281;34.132;-118.018;2023-04-20T05:07:41;100348.84;;;14.39;56.96
50368;BME280;36281;34.132;-118.018;2023-04-20T05:10:10;100350.09;;;14.36;57.64
50368;BME280;36281;34.132;-118.018;2023-04-20T05:12:41;100356.72;;;14.34;56.64
50368;BME280;36281;34.132;-118.018;2023-04-20T05:15:11;100354.47;;;14.31;56.79
50368;BME280;36281;34.132;-118.018;2023-04-20T05:17:40;100350.06;;;14.25;57.12
50368;BME280;36281;34.132;-118.018;2023-04-20T05:20:12;100356.44;;;14.23;57.33
50368;BME280;36281;34.132;-118.018;2023-04-20T05:22:41;100356.06;;;14.20;57.74
50368;BME280;36281;34.132;-118.018;2023-04-20T05:25:10;100359.00;;;14.12;57.63
50368;BME280;36281;34.132;-118.018;2023-04-20T05:27:40;100355.63;;;14.05;57.29
50368;BME280;36281;34.132;-118.018;2023-04-20T05:30:10;100353.75;;;14.05;56.77
50368;BME280;36281;34.132;-118.018;2023-04-20T05:32:48;100352.38;;;14.03;56.86
50368;BME280;36281;34.132;-118.018;2023-04-20T05:35:21;100363.84;;;14.03;56.81
50368;BME280;36281;34.132;-118.018;2023-04-20T05:37:51;100365.06;;;14.01;57.62
50368;BME280;36281;34.132;-118.018;2023-04-20T05:40:21;100368.06;;;13.92;58.39
50368;BME280;36281;34.132;-118.018;2023-04-20T05:42:50;100363.16;;;13.89;58.68
50368;BME280;36281;34.132;-118.018;2023-04-20T05:45:20;100355.03;;;13.84;58.92
50368;BME280;36281;34.132;-118.018;2023-04-20T05:47:52;100365.66;;;13.84;58.47
50368;BME280;36281;34.132;-118.018;2023-04-20T05:50:23;100363.81;;;13.85;58.13
50368;BME280;36281;34.132;-118.018;2023-04-20T05:52:53;100357.75;;;13.78;57.77
50368;BME280;36281;34.132;-118.018;2023-04-20T05:55:22;100362.94;;;13.73;57.50
50368;BME280;36281;34.132;-118.018;2023-04-20T05:57:51;100361.28;;;13.71;57.41
50368;BME280;36281;34.132;-118.018;2023-04-20T06:00:20;100353.13;;;13.66;57.18
50368;BME280;36281;34.132;-118.018;2023-04-20T06:02:52;100345.97;;;13.67;56.75
50368;BME280;36281;34.132;-118.018;2023-04-20T06:05:24;100360.31;;;13.66;57.45
50368;BME280;36281;34.132;-118.018;2023-04-20T06:07:53;100365.72;;;13.59;57.27
50368;BME280;36281;34.132;-118.018;2023-04-20T06:10:23;100367.34;;;13.60;57.61
50368;BME280;36281;34.132;-118.018;2023-04-20T06:12:52;100365.94;;;13.58;57.19
50368;BME280;36281;34.132;-118.018;2023-04-20T06:15:21;100371.09;;;13.53;57.96
50368;BME280;36281;34.132;-118.018;2023-04-20T06:17:50;100364.78;;;13.47;58.19
50368;BME280;36281;34.132;-118.018;2023-04-20T06:20:19;100371.75;;;13.48;58.59
50368;BME280;36281;34.132;-118.018;2023-04-20T06:22:50;100377.56;;;13.38;58.61
50368;BME280;36281;34.132;-118.018;2023-04-20T06:25:19;100375.16;;;13.30;59.41
50368;BME280;36281;34.132;-118.018;2023-04-20T06:27:48;100375.41;;;13.22;59.49
50368;BME280;36281;34.132;-118.018;2023-04-20T06:30:19;100380.13;;;13.20;60.01
50368;BME280;36281;34.132;-118.018;2023-04-20T06:32:48;100383.66;;;13.14;59.84
50368;BME280;36281;34.132;-118.018;2023-04-20T06:35:18;100381.63;;;13.09;60.24
50368;BME280;36281;34.132;-118.018;2023-04-20T06:37:47;100389.41;;;13.11;60.73
50368;BME280;36281;34.132;-118.018;2023-04-20T06:40:18;100389.22;;;13.06;60.89
50368;BME280;36281;34.132;-118.018;2023-04-20T06:42:47;100385.53;;;13.07;60.20
50368;BME280;36281;34.132;-118.018;2023-04-20T06:45:16;100383.91;;;13.06;59.91
50368;BME280;36281;34.132;-118.018;2023-04-20T06:47:45;100359.72;;;12.82;60.04
50368;BME280;36281;34.132;-118.018;2023-04-20T06:50:15;100398.28;;;12.98;60.42
50368;BME280;36281;34.132;-118.018;2023-04-20T06:52:44;100402.59;;;12.92;60.82
50368;BME280;36281;34.132;-118.018;2023-04-20T06:55:18;100396.47;;;12.92;60.66
50368;BME280;36281;34.132;-118.018;2023-04-20T06:57:48;100404.06;;;12.88;61.04
50368;BME280;36281;34.132;-118.018;2023-04-20T07:00:18;100397.75;;;12.83;60.74
50368;BME280;36281;34.132;-118.018;2023-04-20T07:02:49;100400.66;;;12.75;61.33
50368;BME280;36281;34.132;-118.018;2023-04-20T07:05:19;100400.72;;;12.68;61.40
50368;BME280;36281;34.132;-118.018;2023-04-20T07:07:49;100402.75;;;12.66;60.73
50368;BME280;36281;34.132;-118.018;2023-04-20T07:10:20;100406.44;;;12.65;61.41
50368;BME280;36281;34.132;-118.018;2023-04-20T07:12:49;100414.41;;;12.65;61.94
50368;BME280;36281;34.132;-118.018;2023-04-20T07:15:18;100416.44;;;12.63;62.30
50368;BME280;36281;34.132;-118.018;2023-04-20T07:17:47;100411.34;;;12.61;62.37
50368;BME280;36281;34.132;-118.018;2023-04-20T07:20:16;100414.22;;;12.60;62.34
50368;BME280;36281;34.132;-118.018;2023-04-20T07:22:45;100417.50;;;12.55;63.01
50368;BME280;36281;34.132;-118.018;2023-04-20T07:25:15;100418.31;;;12.56;62.47
50368;BME280;36281;34.132;-118.018;2023-04-20T07:27:46;100413.66;;;12.51;63.17
50368;BME280;36281;34.132;-118.018;2023-04-20T07:30:15;100421.03;;;12.49;63.43
50368;BME280;36281;34.132;-118.018;2023-04-20T07:32:44;100422.25;;;12.47;63.78
50368;BME280;36281;34.132;-118.018;2023-04-20T07:35:14;100414.50;;;12.45;63.77
50368;BME280;36281;34.132;-118.018;2023-04-20T07:37:43;100423.69;;;12.42;63.88
50368;BME280;36281;34.132;-118.018;2023-04-20T07:40:12;100417.81;;;12.34;63.47
50368;BME280;36281;34.132;-118.018;2023-04-20T07:42:41;100429.44;;;12.39;63.83
50368;BME280;36281;34.132;-118.018;2023-04-20T07:45:12;100429.84;;;12.36;64.15
50368;BME280;36281;34.132;-118.018;2023-04-20T07:47:41;100430.91;;;12.22;64.69
50368;BME280;36281;34.132;-118.018;2023-04-20T07:50:14;100443.16;;;12.30;64.40
50368;BME280;36281;34.132;-118.018;2023-04-20T07:52:43;100438.06;;;12.28;63.88
50368;BME280;36281;34.132;-118.018;2023-04-20T07:55:12;100433.56;;;12.22;63.52
50368;BME280;36281;34.132;-118.018;2023-04-20T07:57:43;100431.31;;;12.26;63.58
50368;BME280;36281;34.132;-118.018;2023-04-20T08:00:14;100437.25;;;12.21;64.06
50368;BME280;36281;34.132;-118.018;2023-04-20T08:02:44;100428.47;;;12.21;63.93
50368;BME280;36281;34.132;-118.018;2023-04-20T08:05:13;100436.22;;;12.22;63.24
50368;BME280;36281;34.132;-118.018;2023-04-20T08:07:42;100439.50;;;12.18;63.02
50368;BME280;36281;34.132;-118.018;2023-04-20T08:10:12;100432.34;;;12.18;63.49
50368;BME280;36281;34.132;-118.018;2023-04-20T08:12:41;100424.59;;;12.16;62.97
50368;BME280;36281;34.132;-118.018;2023-04-20T08:15:10;100421.94;;;12.16;63.35
50368;BME280;36281;34.132;-118.018;2023-04-20T08:17:41;100432.78;;;12.15;63.15
50368;BME280;36281;34.132;-118.018;2023-04-20T08:20:10;100434.19;;;12.11;63.25
50368;BME280;36281;34.132;-118.018;2023-04-20T08:22:40;100432.16;;;12.06;63.29
50368;BME280;36281;34.132;-118.018;2023-04-20T08:25:09;100424.63;;;11.97;63.67
50368;BME280;36281;34.132;-118.018;2023-04-20T08:27:38;100427.69;;;12.00;64.71
50368;BME280;36281;34.132;-118.018;2023-04-20T08:30:08;100428.72;;;11.93;63.92
50368;BME280;36281;34.132;-118.018;2023-04-20T08:32:38;100422.00;;;11.90;64.75
50368;BME280;36281;34.132;-118.018;2023-04-20T08:35:10;100404.22;;;11.77;64.60
50368;BME280;36281;34.132;-118.018;2023-04-20T08:37:39;100427.53;;;11.88;64.45
50368;BME280;36281;34.132;-118.018;2023-04-20T08:40:10;100426.88;;;11.86;64.82
50368;BME280;36281;34.132;-118.018;2023-04-20T08:42:39;100421.16;;;11.76;64.30
50368;BME280;36281;34.132;-118.018;2023-04-20T08:45:08;100414.44;;;11.74;65.46
50368;BME280;36281;34.132;-118.018;2023-04-20T08:47:38;100417.50;;;11.64;65.66
50368;BME280;36281;34.132;-118.018;2023-04-20T08:50:10;100420.97;;;11.64;66.39
50368;BME280;36281;34.132;-118.018;2023-04-20T08:52:39;100420.75;;;11.66;66.57
50368;BME280;36281;34.132;-118.018;2023-04-20T08:55:08;100410.34;;;11.58;66.30
50368;BME280;36281;34.132;-118.018;2023-04-20T08:57:38;100402.19;;;11.59;66.51
50368;BME280;36281;34.132;-118.018;2023-04-20T09:00:08;100405.66;;;11.53;67.12
50368;BME280;36281;34.132;-118.018;2023-04-20T09:02:49;100405.06;;;11.51;67.25
50368;BME280;36281;34.132;-118.018;2023-04-20T09:05:27;100406.69;;;11.46;67.15
50368;BME280;36281;34.132;-118.018;2023-04-20T09:07:58;100381.59;;;11.35;67.45
50368;BME280;36281;34.132;-118.018;2023-04-20T09:10:38;100409.34;;;11.46;67.57
50368;BME280;36281;34.132;-118.018;2023-04-20T09:13:08;100402.41;;;11.45;67.86
50368;BME280;36281;34.132;-118.018;2023-04-20T09:15:37;100402.00;;;11.41;67.50
50368;BME280;36281;34.132;-118.018;2023-04-20T09:18:13;100396.06;;;11.32;67.62
50368;BME280;36281;34.132;-118.018;2023-04-20T09:20:44;100394.44;;;11.31;67.82
50368;BME280;36281;34.132;-118.018;2023-04-20T09:23:14;100392.38;;;11.33;67.94
50368;BME280;36281;34.132;-118.018;2023-04-20T09:25:46;100385.47;;;11.26;68.59
50368;BME280;36281;34.132;-118.018;2023-04-20T09:28:17;100387.50;;;11.17;68.68
50368;BME280;36281;34.132;-118.018;2023-04-20T09:30:47;100391.59;;;11.20;68.94
50368;BME280;36281;34.132;-118.018;2023-04-20T09:33:19;100394.22;;;11.13;69.17
50368;BME280;36281;34.132;-118.018;2023-04-20T09:35:49;100385.44;;;11.06;69.13
50368;BME280;36281;34.132;-118.018;2023-04-20T09:38:24;100381.13;;;10.98;69.02
50368;BME280;36281;34.132;-118.018;2023-04-20T09:40:54;100390.75;;;11.06;68.56
50368;BME280;36281;34.132;-118.018;2023-04-20T09:43:28;100371.56;;;10.97;69.08
50368;BME280;36281;34.132;-118.018;2023-04-20T09:45:58;100381.75;;;10.94;68.78
50368;BME280;36281;34.132;-118.018;2023-04-20T09:48:28;100385.41;;;10.93;69.04
50368;BME280;36281;34.132;-118.018;2023-04-20T09:51:01;100374.41;;;10.96;69.05
50368;BME280;36281;34.132;-118.018;2023-04-20T09:53:31;100382.16;;;10.91;69.13
50368;BME280;36281;34.132;-118.018;2023-04-20T09:56:01;100379.09;;;10.87;69.70
50368;BME280;36281;34.132;-118.018;2023-04-20T09:58:31;100383.56;;;10.86;69.34
50368;BME280;36281;34.132;-118.018;2023-04-20T10:01:02;100385.59;;;10.78;69.71
50368;BME280;36281;34.132;-118.018;2023-04-20T10:03:31;100393.75;;;10.76;70.46
50368;BME280;36281;34.132;-118.018;2023-04-20T10:06:02;100387.22;;;10.79;70.75
50368;BME280;36281;34.132;-118.018;2023-04-20T10:08:39;100381.69;;;10.74;70.99
50368;BME280;36281;34.132;-118.018;2023-04-20T10:11:11;100381.69;;;10.74;71.06
50368;BME280;36281;34.132;-118.018;2023-04-20T10:13:52;100383.75;;;10.72;71.05
50368;BME280;36281;34.132;-118.018;2023-04-20T10:16:21;100380.06;;;10.66;71.07
50368;BME280;36281;34.132;-118.018;2023-04-20T10:18:58;100375.97;;;10.64;70.96
50368;BME280;36281;34.132;-118.018;2023-04-20T10:21:30;100380.88;;;10.67;70.60
50368;BME280;36281;34.132;-118.018;2023-04-20T10:24:02;100381.91;;;10.66;70.66
50368;BME280;36281;34.132;-118.018;2023-04-20T10:26:37;100395.75;;;10.68;70.42
50368;BME280;36281;34.132;-118.018;2023-04-20T10:29:07;100384.09;;;10.55;70.32
50368;BME280;36281;34.132;-118.018;2023-04-20T10:31:37;100383.28;;;10.55;70.57
50368;BME280;36281;34.132;-118.018;2023-04-20T10:34:07;100397.13;;;10.50;70.92
50368;BME280;36281;34.132;-118.018;2023-04-20T10:36:38;100392.81;;;10.43;71.18
50368;BME280;36281;34.132;-118.018;2023-04-20T10:39:14;100391.19;;;10.42;71.43
50368;BME280;36281;34.132;-118.018;2023-04-20T10:41:51;100393.41;;;10.38;72.01
50368;BME280;36281;34.132;-118.018;2023-04-20T10:44:21;100393.59;;;10.37;72.05
50368;BME280;36281;34.132;-118.018;2023-04-20T10:46:51;100395.00;;;10.32;71.81
50368;BME280;36281;34.132;-118.018;2023-04-20T10:49:25;100397.44;;;10.34;71.55
50368;BME280;36281;34.132;-118.018;2023-04-20T10:51:57;100405.22;;;10.35;70.99
50368;BME280;36281;34.132;-118.018;2023-04-20T10:54:36;100406.84;;;10.37;70.64
50368;BME280;36281;34.132;-118.018;2023-04-20T10:57:06;100402.34;;;10.37;71.00
50368;BME280;36281;34.132;-118.018;2023-04-20T10:59:36;100398.66;;;10.31;71.29
50368;BME280;36281;34.132;-118.018;2023-04-20T11:02:06;100392.56;;;10.31;71.84
50368;BME280;36281;34.132;-118.018;2023-04-20T11:04:38;100391.31;;;10.27;72.30
50368;BME280;36281;34.132;-118.018;2023-04-20T11:07:10;100383.50;;;10.19;71.98
50368;BME280;36281;34.132;-118.018;2023-04-20T11:09:41;100394.09;;;10.19;72.09
50368;BME280;36281;34.132;-118.018;2023-04-20T11:12:10;100402.66;;;10.21;71.66
50368;BME280;36281;34.132;-118.018;2023-04-20T11:14:51;100403.84;;;10.18;72.06
50368;BME280;36281;34.132;-118.018;2023-04-20T11:17:20;100403.84;;;10.18;72.10
50368;BME280;36281;34.132;-118.018;2023-04-20T11:20:10;100402.84;;;10.19;72.02
50368;BME280;36281;34.132;-118.018;2023-04-20T11:22:55;100404.06;;;10.17;72.18
50368;BME280;36281;34.132;-118.018;2023-04-20T11:25:27;100414.84;;;10.15;71.94
50368;BME280;36281;34.132;-118.018;2023-04-20T11:28:04;100420.91;;;10.09;72.00
50368;BME280;36281;34.132;-118.018;2023-04-20T11:30:39;100427.84;;;10.10;72.17
50368;BME280;36281;34.132;-118.018;2023-04-20T11:33:08;100431.31;;;10.10;71.93
50368;BME280;36281;34.132;-118.018;2023-04-20T11:35:39;100436.16;;;10.07;71.73
50368;BME280;36281;34.132;-118.018;2023-04-20T11:38:10;100422.91;;;10.00;71.99
50368;BME280;36281;34.132;-118.018;2023-04-20T11:40:39;100418.81;;;9.98;72.63
50368;BME280;36281;34.132;-118.018;2023-04-20T11:43:08;100429.19;;;9.99;73.13
50368;BME280;36281;34.132;-118.018;2023-04-20T11:45:37;100426.75;;;9.98;73.19
50368;BME280;36281;34.132;-118.018;2023-04-20T11:48:07;100432.03;;;9.98;73.26
50368;BME280;36281;34.132;-118.018;2023-04-20T11:50:36;100427.53;;;9.92;73.47
50368;BME280;36281;34.132;-118.018;2023-04-20T11:53:10;100421.41;;;9.91;72.92
50368;BME280;36281;34.132;-118.018;2023-04-20T11:55:42;100414.44;;;9.83;73.03
50368;BME280;36281;34.132;-118.018;2023-04-20T11:58:11;100414.59;;;9.75;73.03
50368;BME280;36281;34.132;-118.018;2023-04-20T12:00:40;100412.94;;;9.74;73.50
50368;BME280;36281;34.132;-118.018;2023-04-20T12:03:09;100413.97;;;9.73;73.28
50368;BME280;36281;34.132;-118.018;2023-04-20T12:05:39;100416.59;;;9.73;73.66
50368;BME280;36281;34.132;-118.018;2023-04-20T12:08:10;100405.41;;;9.71;73.52
50368;BME280;36281;34.132;-118.018;2023-04-20T12:10:39;100394.97;;;9.63;73.87
50368;BME280;36281;34.132;-118.018;2023-04-20T12:13:09;100400.66;;;9.60;74.13
50368;BME280;36281;34.132;-118.018;2023-04-20T12:15:38;100390.00;;;9.53;74.53
50368;BME280;36281;34.132;-118.018;2023-04-20T12:18:07;100395.69;;;9.50;74.99
50368;BME280;36281;34.132;-118.018;2023-04-20T12:20:36;100405.72;;;9.55;75.02
50368;BME280;36281;34.132;-118.018;2023-04-20T12:23:05;100411.00;;;9.55;75.20
50368;BME280;36281;34.132;-118.018;2023-04-20T12:25:36;100408.09;;;9.50;75.27
50368;BME280;36281;34.132;-118.018;2023-04-20T12:28:05;100411.16;;;9.53;75.35
50368;BME280;36281;34.132;-118.018;2023-04-20T12:30:35;100410.78;;;9.56;75.10
50368;BME280;36281;34.132;-118.018;2023-04-20T12:33:04;100423.81;;;9.58;74.72
50368;BME280;36281;34.132;-118.018;2023-04-20T12:35:34;100423.81;;;9.58;74.84